createdAt,value
2023-03-11T00:00:48.869Z,2.68
2023-03-11T00:03:19.946Z,2.65
2023-03-11T00:05:48.127Z,2.63
2023-03-11T00:08:18.321Z,2.62
2023-03-11T00:10:48.263Z,2.69
2023-03-11T00:13:17.525Z,2.73
2023-03-11T00:15:47.129Z,2.63
2023-03-11T00:18:15.110Z,2.64
2023-03-11T00:20:46.875Z,2.52
2023-03-11T00:23:17.308Z,2.57
2023-03-11T00:25:47.258Z,2.59
2023-03-11T00:28:17.027Z,2.58
2023-03-11T00:30:47.357Z,2.52
2023-03-11T00:33:16.736Z,2.56
2023-03-11T00:35:46.277Z,2.65
2023-03-11T00:38:16.939Z,2.58
2023-03-11T00:40:47.555Z,2.59
2023-03-11T00:43:16.224Z,2.57
2023-03-11T00:45:44.419Z,2.56
2023-03-11T00:48:14.589Z,2.46
2023-03-11T00:50:43.269Z,2.41
2023-03-11T00:53:12.645Z,2.38
2023-03-11T00:55:41.751Z,2.41
2023-03-11T00:58:13.760Z,2.33
2023-03-11T01:00:52.372Z,2.35
2023-03-11T01:03:20.407Z,2.49
2023-03-11T01:05:48.306Z,2.50
2023-03-11T01:08:17.546Z,2.60
2023-03-11T01:10:45.216Z,2.53
2023-03-11T01:13:14.134Z,2.57
2023-03-11T01:15:42.399Z,2.52
2023-03-11T01:18:10.160Z,2.39
2023-03-11T01:20:39.609Z,2.32
2023-03-11T01:23:08.434Z,2.27
2023-03-11T01:25:37.893Z,2.26
2023-03-11T01:28:08.200Z,2.34
2023-03-11T01:30:37.576Z,2.55
2023-03-11T01:33:07.179Z,2.55
2023-03-11T01:35:36.149Z,2.74
2023-03-11T01:38:04.016Z,2.53
2023-03-11T01:40:34.133Z,2.40
2023-03-11T01:43:28.004Z,2.52
2023-03-11T01:46:13.042Z,2.66
2023-03-11T01:48:42.654Z,2.68
2023-03-11T01:51:10.576Z,2.65
2023-03-11T01:53:38.456Z,2.77
2023-03-11T01:56:07.189Z,2.75
2023-03-11T01:58:40.802Z,2.69
2023-03-11T02:01:08.966Z,2.66
2023-03-11T02:03:40.135Z,2.80
2023-03-11T02:06:12.212Z,2.71
2023-03-11T02:08:42.232Z,2.66
2023-03-11T02:11:15.410Z,2.65
2023-03-11T02:13:49.223Z,2.54
2023-03-11T02:16:17.613Z,2.53
2023-03-11T02:18:46.331Z,2.51
2023-03-11T02:21:23.745Z,2.45
2023-03-11T02:24:00.017Z,2.29
2023-03-11T02:26:34.604Z,2.20
2023-03-11T02:29:07.146Z,2.21
2023-03-11T02:31:39.822Z,2.21
2023-03-11T02:34:15.501Z,2.02
2023-03-11T02:36:44.446Z,2.08
2023-03-11T02:39:15.137Z,1.99
2023-03-11T02:41:47.534Z,1.96
2023-03-11T02:44:18.165Z,2.00
2023-03-11T02:46:46.770Z,2.08
2023-03-11T02:49:16.523Z,2.12
2023-03-11T02:51:44.228Z,2.29
2023-03-11T02:54:12.923Z,2.13
2023-03-11T02:56:40.802Z,2.04
2023-03-11T02:59:08.991Z,2.00
2023-03-11T03:01:38.280Z,1.87
2023-03-11T03:04:06.371Z,1.78
2023-03-11T03:06:35.097Z,1.69
2023-03-11T03:09:03.088Z,1.69
2023-03-11T03:11:31.355Z,1.75
2023-03-11T03:13:59.752Z,1.69
2023-03-11T03:16:27.966Z,1.67
2023-03-11T03:18:57.287Z,1.66
2023-03-11T03:21:26.424Z,1.60
2023-03-11T03:23:55.488Z,1.57
2023-03-11T03:26:23.594Z,1.45
2023-03-11T03:28:52.827Z,1.47
2023-03-11T03:31:20.968Z,1.46
2023-03-11T03:33:49.800Z,1.40
2023-03-11T03:36:19.082Z,1.33
2023-03-11T03:38:56.325Z,1.34
2023-03-11T03:41:26.800Z,1.34
2023-03-11T03:43:55.117Z,1.33
2023-03-11T03:46:24.272Z,1.35
2023-03-11T03:48:55.562Z,1.32
2023-03-11T03:51:25.283Z,1.29
2023-03-11T03:54:10.890Z,1.34
2023-03-11T03:56:39.207Z,1.38
2023-03-11T03:59:07.459Z,1.41
2023-03-11T04:01:40.433Z,1.52
2023-03-11T04:04:08.334Z,1.53
2023-03-11T04:06:37.580Z,1.56
2023-03-11T04:09:07.855Z,1.58
2023-03-11T04:11:36.537Z,1.58
2023-03-11T04:14:06.476Z,1.64
2023-03-11T04:16:39.132Z,1.76
2023-03-11T04:19:11.605Z,1.74
2023-03-11T04:21:40.787Z,1.73
2023-03-11T04:24:08.890Z,1.80
2023-03-11T04:26:38.867Z,1.65
2023-03-11T04:29:10.368Z,1.56
2023-03-11T04:31:43.025Z,1.49
2023-03-11T04:34:10.829Z,1.45
2023-03-11T04:36:41.064Z,1.44
2023-03-11T04:39:09.540Z,1.50
2023-03-11T04:41:42.352Z,1.50
2023-03-11T04:44:12.641Z,1.46
2023-03-11T04:46:40.472Z,1.39
2023-03-11T04:49:10.011Z,1.36
2023-03-11T04:51:38.586Z,1.33
2023-03-11T04:54:08.986Z,1.29
2023-03-11T04:56:36.987Z,1.24
2023-03-11T04:59:06.266Z,1.20
2023-03-11T05:01:36.213Z,1.14
2023-03-11T05:04:06.949Z,1.07
2023-03-11T05:06:34.923Z,1.04
2023-03-11T05:09:04.853Z,0.94
2023-03-11T05:11:37.271Z,0.94
2023-03-11T05:14:05.173Z,0.82
2023-03-11T05:16:33.167Z,0.77
2023-03-11T05:19:01.834Z,0.71
2023-03-11T05:21:30.489Z,0.72
2023-03-11T05:23:59.626Z,0.64
2023-03-11T05:26:27.476Z,0.57
2023-03-11T05:28:57.486Z,0.53
2023-03-11T05:31:25.493Z,0.54
2023-03-11T05:33:53.912Z,0.53
2023-03-11T05:36:21.721Z,0.53
2023-03-11T05:38:50.201Z,0.52
2023-03-11T05:41:18.822Z,0.51
2023-03-11T05:43:47.585Z,0.45
2023-03-11T05:46:17.237Z,0.43
2023-03-11T05:48:45.123Z,0.43
2023-03-11T05:51:14.987Z,0.44
2023-03-11T05:53:48.781Z,0.43
2023-03-11T05:56:24.215Z,0.42
2023-03-11T05:58:55.265Z,0.45
2023-03-11T06:01:24.821Z,0.41
2023-03-11T06:03:53.817Z,0.37
2023-03-11T06:06:22.024Z,0.37
2023-03-11T06:08:51.221Z,0.39
2023-03-11T06:11:24.040Z,0.40
2023-03-11T06:13:53.997Z,0.42
2023-03-11T06:16:24.714Z,0.50
2023-03-11T06:18:54.583Z,0.56
2023-03-11T06:21:26.744Z,0.65
2023-03-11T06:23:54.827Z,0.74
2023-03-11T06:26:25.195Z,0.80
2023-03-11T06:28:54.348Z,0.81
2023-03-11T06:31:26.930Z,0.87
2023-03-11T06:33:59.358Z,0.92
2023-03-11T06:36:28.377Z,1.01
2023-03-11T06:38:57.143Z,1.05
2023-03-11T06:41:27.046Z,1.11
2023-03-11T06:43:56.333Z,1.15
2023-03-11T06:46:25.620Z,1.19
2023-03-11T06:48:55.821Z,1.17
2023-03-11T06:51:24.983Z,1.26
2023-03-11T06:53:55.675Z,1.31
2023-03-11T06:56:25.196Z,1.34
2023-03-11T06:58:58.235Z,1.40
2023-03-11T07:01:33.351Z,1.44
2023-03-11T07:04:03.950Z,1.58
2023-03-11T07:06:32.874Z,1.58
2023-03-11T07:09:09.914Z,1.69
2023-03-11T07:11:43.651Z,1.72
2023-03-11T07:14:19.332Z,1.79
2023-03-11T07:16:55.053Z,1.95
2023-03-11T07:19:30.032Z,1.97
2023-03-11T07:21:58.055Z,2.06
2023-03-11T07:24:26.461Z,2.18
2023-03-11T07:26:55.429Z,2.28
2023-03-11T07:29:23.273Z,2.35
2023-03-11T07:31:54.550Z,2.56
2023-03-11T07:34:22.769Z,2.58
2023-03-11T07:36:52.689Z,2.75
2023-03-11T07:39:20.724Z,2.70
2023-03-11T07:41:49.013Z,2.74
2023-03-11T07:44:18.247Z,2.92
2023-03-11T07:46:46.809Z,2.75
2023-03-11T07:49:16.612Z,2.89
2023-03-11T07:51:44.776Z,2.91
2023-03-11T07:54:13.522Z,2.99
2023-03-11T07:56:41.486Z,3.08
2023-03-11T07:59:11.434Z,3.16
2023-03-11T08:01:41.224Z,3.42
2023-03-11T08:04:14.411Z,3.44
2023-03-11T08:06:50.768Z,3.73
2023-03-11T08:09:19.087Z,3.54
2023-03-11T08:11:49.275Z,3.62
2023-03-11T08:14:17.682Z,3.94
2023-03-11T08:16:45.998Z,3.97
2023-03-11T08:19:17.016Z,3.89
2023-03-11T08:21:46.598Z,3.90
2023-03-11T08:24:17.254Z,4.07
2023-03-11T08:26:45.266Z,4.30
2023-03-11T08:29:14.412Z,4.77
2023-03-11T08:31:42.433Z,4.55
2023-03-11T08:34:12.714Z,4.68
2023-03-11T08:36:41.392Z,4.84
2023-03-11T08:39:11.624Z,4.71
2023-03-11T08:41:40.209Z,4.55
2023-03-11T08:44:08.594Z,4.85
2023-03-11T08:46:38.532Z,4.84
2023-03-11T08:49:07.748Z,4.95
2023-03-11T08:51:36.877Z,4.87
2023-03-11T08:54:05.598Z,5.29
2023-03-11T08:56:35.009Z,5.14
2023-03-11T08:59:03.352Z,5.01
2023-03-11T09:01:31.255Z,5.15
2023-03-11T09:03:59.436Z,5.28
2023-03-11T09:06:30.256Z,5.02
2023-03-11T09:08:59.581Z,5.46
2023-03-11T09:11:27.634Z,5.76
2023-03-11T09:13:56.940Z,5.78
2023-03-11T09:16:26.131Z,5.57
2023-03-11T09:18:55.626Z,6.07
2023-03-11T09:21:24.604Z,5.86
2023-03-11T09:23:53.609Z,6.27
2023-03-11T09:26:22.002Z,6.19
2023-03-11T09:28:50.750Z,6.00
2023-03-11T09:31:21.735Z,5.99
2023-03-11T09:33:50.378Z,6.57
2023-03-11T09:36:21.121Z,5.99
2023-03-11T09:38:52.914Z,5.73
2023-03-11T09:41:29.460Z,6.25
2023-03-11T09:44:10.027Z,6.27
2023-03-11T09:47:01.089Z,5.81
2023-03-11T09:49:38.201Z,5.94
2023-03-11T09:52:11.484Z,6.18
2023-03-11T09:54:43.945Z,6.60
2023-03-11T09:57:17.358Z,6.93
2023-03-11T09:59:46.359Z,6.95
2023-03-11T10:02:19.178Z,6.94
2023-03-11T10:04:55.323Z,6.17
2023-03-11T10:07:28.893Z,6.05
2023-03-11T10:09:58.850Z,5.54
2023-03-11T10:12:40.150Z,5.38
2023-03-11T10:15:23.247Z,6.21
2023-03-11T10:18:06.187Z,6.92
2023-03-11T10:20:42.469Z,7.43
2023-03-11T10:23:20.652Z,7.27
2023-03-11T10:25:58.117Z,6.31
2023-03-11T10:28:32.568Z,5.86
2023-03-11T10:31:07.220Z,5.86
2023-03-11T10:33:41.236Z,5.33
2023-03-11T10:36:17.339Z,5.17
2023-03-11T10:38:49.808Z,4.98
2023-03-11T10:41:23.591Z,5.10
2023-03-11T10:43:56.126Z,5.79
2023-03-11T10:46:27.866Z,6.70
2023-03-11T10:48:57.887Z,7.19
2023-03-11T10:51:28.169Z,6.68
2023-03-11T10:53:58.038Z,6.30
2023-03-11T10:56:29.370Z,5.92
2023-03-11T10:58:58.389Z,5.79
2023-03-11T11:01:27.010Z,5.83
2023-03-11T11:03:58.290Z,5.47
2023-03-11T11:06:29.103Z,5.65
2023-03-11T11:09:14.345Z,6.01
2023-03-11T11:11:42.217Z,5.74
2023-03-11T11:14:10.811Z,5.77
2023-03-11T11:16:39.283Z,5.71
2023-03-11T11:19:13.564Z,5.49
2023-03-11T11:21:44.119Z,5.43
2023-03-11T11:24:19.563Z,6.03
2023-03-11T11:27:05.831Z,6.56
2023-03-11T11:29:34.995Z,6.51
2023-03-11T11:32:20.496Z,7.28
2023-03-11T11:34:59.444Z,7.83
2023-03-11T11:37:31.853Z,7.93
2023-03-11T11:40:11.181Z,7.61
2023-03-11T11:42:41.016Z,7.44
2023-03-11T11:45:15.787Z,6.87
2023-03-11T11:47:48.236Z,6.40
2023-03-11T11:50:28.139Z,6.22
2023-03-11T11:53:02.791Z,6.14
2023-03-11T11:55:31.305Z,6.04
2023-03-11T11:57:59.169Z,5.87
2023-03-11T12:00:35.454Z,6.09
2023-03-11T12:03:20.811Z,5.95
2023-03-11T12:05:58.014Z,6.09
2023-03-11T12:08:35.559Z,6.17
2023-03-11T12:11:07.390Z,6.26
2023-03-11T12:13:51.795Z,6.33
2023-03-11T12:16:32.278Z,6.31
2023-03-11T12:19:08.196Z,6.15
2023-03-11T12:21:54.180Z,6.08
2023-03-11T12:24:41.055Z,6.35
2023-03-11T12:27:17.450Z,6.53
2023-03-11T12:29:50.564Z,6.56
2023-03-11T12:32:24.635Z,6.82
2023-03-11T12:34:53.467Z,6.71
2023-03-11T12:37:24.309Z,6.68
2023-03-11T12:39:53.113Z,6.57
2023-03-11T12:42:25.112Z,6.61
2023-03-11T12:44:53.900Z,6.12
2023-03-11T12:47:27.228Z,5.95
2023-03-11T12:49:57.355Z,6.07
2023-03-11T12:52:29.098Z,6.39
2023-03-11T12:55:34.491Z,6.64
2023-03-11T12:58:27.067Z,6.62
2023-03-11T13:01:10.270Z,8.39
2023-03-11T13:03:56.805Z,8.72
2023-03-11T13:06:47.474Z,7.92
2023-03-11T13:09:18.110Z,7.30
2023-03-11T13:11:49.216Z,7.37
2023-03-11T13:14:29.301Z,7.37
2023-03-11T13:16:58.700Z,7.38
2023-03-11T13:19:37.011Z,6.83
2023-03-11T13:22:07.171Z,6.96
2023-03-11T13:24:52.339Z,6.74
2023-03-11T13:27:42.832Z,6.77
2023-03-11T13:30:20.547Z,6.77
2023-03-11T13:33:09.499Z,6.58
2023-03-11T13:35:51.064Z,6.67
2023-03-11T13:38:40.793Z,6.67
2023-03-11T13:41:17.128Z,6.81
2023-03-11T13:43:46.864Z,6.51
2023-03-11T13:46:24.273Z,6.52
2023-03-11T13:49:01.099Z,6.42
2023-03-11T13:51:36.364Z,6.57
2023-03-11T13:54:11.220Z,6.81
2023-03-11T13:56:46.733Z,6.51
2023-03-11T13:59:18.543Z,6.44
2023-03-11T14:01:52.239Z,6.65
2023-03-11T14:04:26.069Z,6.44
2023-03-11T14:06:54.056Z,6.31
2023-03-11T14:09:23.545Z,6.47
2023-03-11T14:11:53.930Z,6.32
2023-03-11T14:14:47.772Z,6.20
2023-03-11T14:17:17.455Z,6.26
2023-03-11T14:20:04.729Z,6.27
2023-03-11T14:22:32.831Z,6.36
2023-03-11T14:25:10.916Z,6.35
2023-03-11T14:27:53.026Z,6.32
2023-03-11T14:30:25.142Z,6.28
2023-03-11T14:33:02.820Z,6.29
2023-03-11T14:35:31.880Z,6.20
2023-03-11T14:37:59.847Z,5.97
2023-03-11T14:40:30.319Z,6.17
2023-03-11T14:43:02.847Z,6.35
2023-03-11T14:45:33.223Z,6.28
2023-03-11T14:48:07.465Z,6.30
2023-03-11T14:50:36.113Z,6.45
2023-03-11T14:53:09.141Z,6.36
2023-03-11T14:55:41.557Z,5.99
2023-03-11T14:58:19.242Z,5.73
2023-03-11T15:00:52.564Z,6.08
2023-03-11T15:03:24.656Z,6.22
2023-03-11T15:05:55.878Z,6.19
2023-03-11T15:08:28.122Z,6.16
2023-03-11T15:11:09.039Z,5.98
2023-03-11T15:13:41.478Z,5.90
2023-03-11T15:16:24.654Z,5.90
2023-03-11T15:18:57.094Z,5.91
2023-03-11T15:21:26.372Z,5.86
2023-03-11T15:24:01.533Z,5.91
2023-03-11T15:26:31.967Z,5.89
2023-03-11T15:29:06.875Z,6.20
2023-03-11T15:31:38.416Z,6.00
2023-03-11T15:34:25.581Z,6.14
2023-03-11T15:37:02.529Z,6.33
2023-03-11T15:39:48.295Z,6.02
2023-03-11T15:42:21.020Z,5.99
2023-03-11T15:45:28.013Z,5.95
2023-03-11T15:47:57.044Z,5.87
2023-03-11T15:50:40.105Z,5.62
2023-03-11T15:53:14.891Z,5.37
2023-03-11T15:55:44.235Z,5.22
2023-03-11T15:58:16.017Z,5.00
2023-03-11T16:00:49.794Z,4.87
2023-03-11T16:03:19.964Z,4.78
2023-03-11T16:05:50.482Z,4.69
2023-03-11T16:08:19.034Z,4.69
2023-03-11T16:10:50.670Z,4.69
2023-03-11T16:13:20.836Z,4.73
2023-03-11T16:15:52.181Z,4.68
2023-03-11T16:18:20.328Z,4.68
2023-03-11T16:20:51.752Z,4.69
2023-03-11T16:23:23.337Z,4.72
2023-03-11T16:25:55.232Z,4.69
2023-03-11T16:28:23.291Z,4.70
2023-03-11T16:30:57.609Z,4.58
2023-03-11T16:33:26.006Z,4.52
2023-03-11T16:35:54.666Z,4.34
2023-03-11T16:38:23.278Z,4.32
2023-03-11T16:40:57.749Z,4.27
2023-03-11T16:43:26.288Z,4.15
2023-03-11T16:45:59.560Z,4.06
2023-03-11T16:48:27.893Z,4.00
2023-03-11T16:50:56.739Z,3.98
2023-03-11T16:53:26.215Z,4.02
2023-03-11T16:55:54.843Z,3.96
2023-03-11T16:58:22.986Z,3.90
2023-03-11T17:00:53.296Z,3.86
2023-03-11T17:03:24.805Z,3.81
2023-03-11T17:06:02.822Z,3.97
2023-03-11T17:08:32.086Z,3.86
2023-03-11T17:11:00.542Z,3.62
2023-03-11T17:13:29.517Z,3.58
2023-03-11T17:16:02.063Z,3.56
2023-03-11T17:18:32.358Z,3.54
2023-03-11T17:21:02.730Z,3.47
2023-03-11T17:23:31.951Z,3.37
2023-03-11T17:26:01.791Z,3.29
2023-03-11T17:28:30.093Z,3.30
2023-03-11T17:30:59.567Z,3.18
2023-03-11T17:33:27.887Z,3.12
2023-03-11T17:36:03.365Z,3.01
2023-03-11T17:38:32.502Z,2.98
2023-03-11T17:41:02.136Z,2.92
2023-03-11T17:43:30.177Z,2.82
2023-03-11T17:45:59.909Z,2.67
2023-03-11T17:48:28.923Z,2.63
2023-03-11T17:50:57.545Z,2.56
2023-03-11T17:53:27.408Z,2.53
2023-03-11T17:55:55.644Z,2.53
2023-03-11T17:58:23.427Z,2.52
2023-03-11T18:00:51.679Z,2.44
2023-03-11T18:03:19.664Z,2.39
2023-03-11T18:05:56.784Z,2.39
2023-03-11T18:08:26.013Z,2.35
2023-03-11T18:10:56.098Z,2.32
2023-03-11T18:13:23.797Z,2.31
2023-03-11T18:15:59.010Z,2.25
2023-03-11T18:18:27.290Z,2.20
2023-03-11T18:20:56.673Z,2.20
2023-03-11T18:23:25.981Z,2.12
2023-03-11T18:25:55.288Z,2.08
2023-03-11T18:28:23.112Z,2.02
2023-03-11T18:30:51.866Z,1.93
2023-03-11T18:33:19.972Z,1.96
2023-03-11T18:35:47.817Z,1.99
2023-03-11T18:38:15.751Z,1.99
2023-03-11T18:40:44.847Z,1.96
2023-03-11T18:43:15.196Z,1.99
2023-03-11T18:45:43.092Z,1.97
2023-03-11T18:48:11.598Z,1.95
2023-03-11T18:50:39.890Z,1.92
2023-03-11T18:53:08.055Z,1.92
2023-03-11T18:55:36.805Z,1.94
2023-03-11T18:58:09.436Z,1.96
2023-03-11T19:00:37.612Z,1.92
2023-03-11T19:03:07.372Z,1.94
2023-03-11T19:05:35.615Z,1.95
2023-03-11T19:08:03.599Z,1.91
2023-03-11T19:10:32.363Z,1.92
2023-03-11T19:13:00.639Z,1.85
2023-03-11T19:15:29.949Z,1.80
2023-03-11T19:18:06.629Z,1.81
2023-03-11T19:20:35.758Z,1.83
2023-03-11T19:23:05.427Z,1.79
2023-03-11T19:25:33.615Z,1.76
2023-03-11T19:28:03.712Z,1.72
2023-03-11T19:30:34.028Z,1.74
2023-03-11T19:33:04.799Z,1.72
2023-03-11T19:35:34.190Z,1.73
2023-03-11T19:38:03.679Z,1.72
2023-03-11T19:40:33.408Z,1.64
2023-03-11T19:43:06.257Z,1.64
2023-03-11T19:45:35.700Z,1.61
2023-03-11T19:48:06.288Z,1.64
2023-03-11T19:50:34.549Z,1.62
2023-03-11T19:53:04.128Z,1.62
2023-03-11T19:55:32.354Z,1.60
2023-03-11T19:58:02.971Z,1.57
2023-03-11T20:00:31.618Z,1.52
2023-03-11T20:03:02.740Z,1.54
2023-03-11T20:05:31.382Z,1.53
2023-03-11T20:08:00.835Z,1.50
2023-03-11T20:10:29.630Z,1.47
2023-03-11T20:13:02.533Z,1.39
2023-03-11T20:15:31.361Z,1.19
2023-03-11T20:18:03.106Z,1.07
2023-03-11T20:20:32.167Z,1.08
2023-03-11T20:23:03.700Z,1.12
2023-03-11T20:25:32.505Z,1.05
2023-03-11T20:28:01.365Z,1.09
2023-03-11T20:30:30.780Z,1.13
2023-03-11T20:33:01.042Z,1.15
2023-03-11T20:35:29.577Z,1.15
2023-03-11T20:37:59.522Z,1.11
2023-03-11T20:40:27.968Z,1.14
2023-03-11T20:42:57.275Z,1.16
2023-03-11T20:45:26.616Z,1.25
2023-03-11T20:47:57.505Z,1.19
2023-03-11T20:50:27.304Z,1.16
2023-03-11T20:52:59.533Z,1.18
2023-03-11T20:55:28.308Z,1.20
2023-03-11T20:57:57.240Z,1.22
2023-03-11T21:00:31.560Z,1.19
2023-03-11T21:03:00.744Z,1.12
2023-03-11T21:05:30.444Z,1.09
2023-03-11T21:08:07.917Z,1.04
2023-03-11T21:10:38.655Z,1.02
2023-03-11T21:13:08.563Z,1.01
2023-03-11T21:15:37.585Z,1.02
2023-03-11T21:18:08.347Z,0.98
2023-03-11T21:20:39.524Z,0.92
2023-03-11T21:23:09.798Z,0.95
2023-03-11T21:25:42.894Z,0.96
2023-03-11T21:28:13.725Z,0.93
2023-03-11T21:30:44.202Z,0.88
2023-03-11T21:33:13.528Z,0.86
2023-03-11T21:35:43.192Z,0.81
2023-03-11T21:38:13.823Z,0.82
2023-03-11T21:40:42.062Z,0.84
2023-03-11T21:43:11.276Z,0.81
2023-03-11T21:45:39.886Z,0.83
2023-03-11T21:48:09.589Z,0.82
2023-03-11T21:50:39.577Z,0.75
2023-03-11T21:53:09.755Z,0.76
2023-03-11T21:55:41.962Z,0.69
2023-03-11T21:58:12.181Z,0.63
2023-03-11T22:00:40.623Z,0.58
2023-03-11T22:03:08.980Z,0.60
2023-03-11T22:05:37.755Z,0.61
2023-03-11T22:08:06.963Z,0.63
2023-03-11T22:10:36.899Z,0.60
2023-03-11T22:13:05.497Z,0.71
2023-03-11T22:15:34.089Z,0.57
2023-03-11T22:18:02.192Z,0.52
2023-03-11T22:20:30.562Z,0.51
2023-03-11T22:22:59.406Z,0.52
2023-03-11T22:25:27.970Z,0.48
2023-03-11T22:27:59.708Z,0.47
2023-03-11T22:30:27.828Z,0.47
2023-03-11T22:32:56.888Z,0.44
2023-03-11T22:35:24.823Z,0.43
2023-03-11T22:37:53.553Z,0.41
2023-03-11T22:40:21.534Z,0.40
2023-03-11T22:42:49.309Z,0.34
2023-03-11T22:45:22.415Z,0.36
2023-03-11T22:47:50.590Z,0.39
2023-03-11T22:50:19.841Z,0.34
2023-03-11T22:52:47.462Z,0.28
2023-03-11T22:55:16.249Z,0.29
2023-03-11T22:57:44.571Z,0.21
2023-03-11T23:00:17.435Z,0.07
2023-03-11T23:02:47.459Z,-0.17
2023-03-11T23:05:17.485Z,-0.27
2023-03-11T23:07:45.280Z,-0.27
2023-03-11T23:10:15.383Z,-0.22
2023-03-11T23:12:43.466Z,-0.16
2023-03-11T23:15:14.129Z,-0.09
2023-03-11T23:17:42.820Z,-0.06
2023-03-11T23:20:16.376Z,-0.12
2023-03-11T23:22:44.235Z,-0.14
2023-03-11T23:25:14.992Z,-0.39
2023-03-11T23:27:44.400Z,-0.65
2023-03-11T23:30:13.903Z,-0.77
2023-03-11T23:32:41.633Z,-0.83
2023-03-11T23:35:10.143Z,-0.86
2023-03-11T23:37:39.482Z,-0.85
2023-03-11T23:40:09.544Z,-0.86
2023-03-11T23:42:37.475Z,-0.94
2023-03-11T23:45:06.325Z,-0.95
2023-03-11T23:47:34.074Z,-0.97
2023-03-11T23:50:01.805Z,-1.02
2023-03-11T23:52:29.553Z,-1.05
2023-03-11T23:54:58.694Z,-1.05
2023-03-11T23:57:26.764Z,-1.00
2023-03-11T23:59:56.334Z,-1.00
